KGWO

Greenwood-Leflore Airport

Greenwood, Mississippi, USA
METAR KGWO 232153Z AUTO 15009KT 3SM +RA BR FEW044 BKN080 OVC095 21/19 A3018 RMK AO2 RAB17 SLP217 P0007 T02060194
Observed Flight Rules
Feb-23 @ 21:53 UTC (45 minutes ago) Marginal Visual Flight Rules
Wind Visibility Clouds Conditions
150° at 9 knots 3 miles
  • Few at 4,400' AGL
  • Broken at 8,000' AGL
  • Overcast at 9,500' AGL
  • Heavy Rain
  • Mist
Temperatures Readings Precipitation
Current 21°C / 70°F
Dewpoint 19°C / 66°F
Humidity 88%
Altimeter 30.18" Hg
Pressure 1021.7 hPa
Elevation 44
Current Rain 0.07
METAR KGWO 232153Z AUTO 15009KT 3SM +RA BR FEW044 BKN080 OVC095 21/19 A3018 RMK AO2 RAB17 SLP217 P0007 T02060194
Observed Flight Rules
Feb-23 @ 21:53 UTC
(45 minutes ago)
MVFR
Wind Visibility
150° at 9 knots 3 miles
Clouds
  • Few at 4,400' AGL
  • Broken at 8,000' AGL
  • Overcast at 9,500' AGL
Conditions
  • Heavy Rain
  • Mist
Temperature Dewpoint
21°C / 70°F 19°C / 66°F
Humidity Altimeter Pressure
88% 30.18" Hg 1021.7 hPa
Current Rain
0.07